createdAt,value
2023-02-24T00:01:51.693Z,96.63
2023-02-24T00:04:21.636Z,97.10
2023-02-24T00:06:51.259Z,96.47
2023-02-24T00:09:21.789Z,96.47
2023-02-24T00:11:54.298Z,96.37
2023-02-24T00:14:23.148Z,96.80
2023-02-24T00:16:51.416Z,98.80
2023-02-24T00:19:21.155Z,98.23
2023-02-24T00:21:51.454Z,98.30
2023-02-24T00:24:19.929Z,98.20
2023-02-24T00:26:54.343Z,97.23
2023-02-24T00:29:22.957Z,97.60
2023-02-24T00:31:56.793Z,99.60
2023-02-24T00:34:25.092Z,97.80
2023-02-24T00:36:54.785Z,98.27
2023-02-24T00:39:30.092Z,97.47
2023-02-24T00:42:04.626Z,95.80
2023-02-24T00:44:34.798Z,98.97
2023-02-24T00:47:04.906Z,98.20
2023-02-24T00:49:33.959Z,98.80
2023-02-24T00:52:04.897Z,100.60
2023-02-24T00:54:36.321Z,98.70
2023-02-24T00:57:04.566Z,99.20
2023-02-24T00:59:32.655Z,97.07
2023-02-24T01:02:00.935Z,97.17
2023-02-24T01:04:29.385Z,98.77
2023-02-24T01:07:00.225Z,102.17
2023-02-24T01:09:33.401Z,98.33
2023-02-24T01:12:33.736Z,98.17
2023-02-24T01:15:05.040Z,99.93
2023-02-24T01:17:33.079Z,99.17
2023-02-24T01:20:16.070Z,99.30
2023-02-24T01:22:45.632Z,101.53
2023-02-24T01:25:15.146Z,100.30
2023-02-24T01:27:43.269Z,98.17
2023-02-24T01:30:15.913Z,98.67
2023-02-24T01:32:44.989Z,99.03
2023-02-24T01:35:14.277Z,98.43
2023-02-24T01:37:43.171Z,98.70
2023-02-24T01:40:21.607Z,98.07
2023-02-24T01:42:50.647Z,98.67
2023-02-24T01:45:25.073Z,97.97
2023-02-24T01:47:54.427Z,98.67
2023-02-24T01:50:26.130Z,98.17
2023-02-24T01:52:58.807Z,97.50
2023-02-24T01:55:32.033Z,98.90
2023-02-24T01:58:04.961Z,100.33
2023-02-24T02:00:39.433Z,99.83
2023-02-24T02:03:13.170Z,100.77
2023-02-24T02:05:42.286Z,100.13
2023-02-24T02:08:11.349Z,100.27
2023-02-24T02:10:44.168Z,101.07
2023-02-24T02:13:14.256Z,101.17
2023-02-24T02:15:56.245Z,99.50
2023-02-24T02:18:33.272Z,99.57
2023-02-24T02:21:26.813Z,98.50
2023-02-24T02:24:05.333Z,98.87
2023-02-24T02:27:10.890Z,98.03
2023-02-24T02:30:19.766Z,99.40
2023-02-24T02:33:27.401Z,101.00
2023-02-24T02:36:07.089Z,99.10
2023-02-24T02:38:43.150Z,102.57
2023-02-24T02:41:20.751Z,104.60
2023-02-24T02:43:52.562Z,101.57
2023-02-24T02:46:34.921Z,102.40
2023-02-24T02:49:13.667Z,101.80
2023-02-24T02:51:51.697Z,101.23
2023-02-24T02:54:27.153Z,102.27
2023-02-24T02:57:01.528Z,101.87
2023-02-24T02:59:32.179Z,102.43
2023-02-24T03:02:11.662Z,99.87
2023-02-24T03:04:43.310Z,100.23
2023-02-24T03:07:17.161Z,98.30
2023-02-24T03:09:49.576Z,98.57
2023-02-24T03:12:21.800Z,98.07
2023-02-24T03:14:53.412Z,99.80
2023-02-24T03:17:25.879Z,99.97
2023-02-24T03:20:00.976Z,97.27
2023-02-24T03:22:35.474Z,100.27
2023-02-24T03:25:06.105Z,99.33
2023-02-24T03:27:41.633Z,100.83
2023-02-24T03:30:16.968Z,99.57
2023-02-24T03:32:55.869Z,99.67
2023-02-24T03:35:27.323Z,100.13
2023-02-24T03:37:59.494Z,99.63
2023-02-24T03:40:29.873Z,98.10
2023-02-24T03:43:05.162Z,99.60
2023-02-24T03:45:37.973Z,100.47
2023-02-24T03:48:07.856Z,99.93
2023-02-24T03:50:38.065Z,98.10
2023-02-24T03:53:22.473Z,100.73
2023-02-24T03:56:00.551Z,100.67
2023-02-24T03:58:39.817Z,99.20
2023-02-24T04:01:14.779Z,100.67
2023-02-24T04:03:50.340Z,99.90
2023-02-24T04:06:23.459Z,101.50
2023-02-24T04:09:01.259Z,101.70
2023-02-24T04:11:37.483Z,99.27
2023-02-24T04:14:09.566Z,98.43
2023-02-24T04:16:43.142Z,98.07
2023-02-24T04:19:15.241Z,97.80
2023-02-24T04:21:45.304Z,98.67
2023-02-24T04:24:16.073Z,98.50
2023-02-24T04:26:46.534Z,100.03
2023-02-24T04:29:20.860Z,99.03
2023-02-24T04:31:53.626Z,99.63
2023-02-24T04:34:22.823Z,97.37
2023-02-24T04:36:51.190Z,98.03
2023-02-24T04:39:23.371Z,96.00
2023-02-24T04:41:52.032Z,95.80
2023-02-24T04:44:22.049Z,96.50
2023-02-24T04:46:51.290Z,95.80
2023-02-24T04:49:20.689Z,96.33
2023-02-24T04:51:48.746Z,95.43
2023-02-24T04:54:18.345Z,92.67
2023-02-24T04:56:50.729Z,91.10
2023-02-24T04:59:19.853Z,91.20
2023-02-24T05:01:51.585Z,90.30
2023-02-24T05:04:20.140Z,89.67
2023-02-24T05:06:49.305Z,89.27
2023-02-24T05:09:19.036Z,88.40
2023-02-24T05:11:50.337Z,87.07
2023-02-24T05:14:21.249Z,85.03
2023-02-24T05:16:50.231Z,82.87
2023-02-24T05:19:37.613Z,82.83
2023-02-24T05:22:07.080Z,79.33
2023-02-24T05:24:35.441Z,77.20
2023-02-24T05:27:05.046Z,76.47
2023-02-24T05:29:35.698Z,75.23
2023-02-24T05:32:05.745Z,72.80
2023-02-24T05:34:34.825Z,71.50
2023-02-24T05:37:10.386Z,69.27
2023-02-24T05:39:38.550Z,66.77
2023-02-24T05:42:08.260Z,66.23
2023-02-24T05:44:37.646Z,66.20
2023-02-24T05:47:06.070Z,64.93
2023-02-24T05:49:36.037Z,62.40
2023-02-24T05:52:08.932Z,61.93
2023-02-24T05:54:40.214Z,59.07
2023-02-24T05:57:12.925Z,58.23
2023-02-24T05:59:42.051Z,58.00
2023-02-24T06:02:12.504Z,54.70
2023-02-24T06:04:50.809Z,53.63
2023-02-24T06:07:22.747Z,54.80
2023-02-24T06:09:53.868Z,53.20
2023-02-24T06:12:25.378Z,54.30
2023-02-24T06:14:53.768Z,55.47
2023-02-24T06:17:22.921Z,53.17
2023-02-24T06:19:52.725Z,51.53
2023-02-24T06:22:22.794Z,51.50
2023-02-24T06:24:51.768Z,51.57
2023-02-24T06:27:21.789Z,52.33
2023-02-24T06:29:52.624Z,51.70
2023-02-24T06:32:22.097Z,51.07
2023-02-24T06:34:51.676Z,52.57
2023-02-24T06:37:19.884Z,54.87
2023-02-24T06:39:48.097Z,54.60
2023-02-24T06:42:16.541Z,55.83
2023-02-24T06:44:45.337Z,54.57
2023-02-24T06:47:17.810Z,52.97
2023-02-24T06:49:45.870Z,51.50
2023-02-24T06:52:18.616Z,50.23
2023-02-24T06:54:48.889Z,50.43
2023-02-24T06:57:16.997Z,48.70
2023-02-24T06:59:46.112Z,46.80
2023-02-24T07:02:17.606Z,48.37
2023-02-24T07:04:45.857Z,46.67
2023-02-24T07:07:17.304Z,52.28
2023-02-24T07:09:45.776Z,47.67
2023-02-24T07:12:15.581Z,47.87
2023-02-24T07:14:44.062Z,46.40
2023-02-24T07:17:14.762Z,44.70
2023-02-24T07:19:44.300Z,46.23
2023-02-24T07:22:14.703Z,46.07
2023-02-24T07:24:46.358Z,44.23
2023-02-24T07:27:22.365Z,44.27
2023-02-24T07:29:53.376Z,44.00
2023-02-24T07:32:22.641Z,45.53
2023-02-24T07:34:53.268Z,45.03
2023-02-24T07:37:23.599Z,46.63
2023-02-24T07:39:51.787Z,45.10
2023-02-24T07:42:19.876Z,44.60
2023-02-24T07:44:49.211Z,45.57
2023-02-24T07:47:17.640Z,47.27
2023-02-24T07:49:45.907Z,50.07
2023-02-24T07:52:16.121Z,50.00
2023-02-24T07:54:44.364Z,50.20
2023-02-24T07:57:13.907Z,47.40
2023-02-24T07:59:47.182Z,48.10
2023-02-24T08:02:16.420Z,49.57
2023-02-24T08:04:50.084Z,47.10
2023-02-24T08:07:24.792Z,47.27
2023-02-24T08:10:14.239Z,48.57
2023-02-24T08:12:43.634Z,49.27
2023-02-24T08:15:23.837Z,48.87
2023-02-24T08:17:53.888Z,49.83
2023-02-24T08:20:22.655Z,49.70
2023-02-24T08:22:53.454Z,52.97
2023-02-24T08:25:35.299Z,53.67
2023-02-24T08:28:08.331Z,53.07
2023-02-24T08:30:45.395Z,53.57
2023-02-24T08:33:18.827Z,52.43
2023-02-24T08:35:46.912Z,51.40
2023-02-24T08:38:20.364Z,52.47
2023-02-24T08:40:55.769Z,52.87
2023-02-24T08:43:32.914Z,51.23
2023-02-24T08:46:04.654Z,52.30
2023-02-24T08:48:38.050Z,49.70
2023-02-24T08:51:10.407Z,50.90
2023-02-24T08:53:41.377Z,50.27
2023-02-24T08:56:12.539Z,49.00
2023-02-24T08:58:47.315Z,47.03
2023-02-24T09:01:24.471Z,44.73
2023-02-24T09:03:55.609Z,43.63
2023-02-24T09:06:27.572Z,42.60
2023-02-24T09:09:11.944Z,42.40
2023-02-24T09:11:44.075Z,41.53
2023-02-24T09:14:25.999Z,40.87
2023-02-24T09:17:03.816Z,41.87
2023-02-24T09:20:02.527Z,38.47
2023-02-24T09:22:33.023Z,39.13
2023-02-24T09:25:24.360Z,41.83
2023-02-24T09:27:56.073Z,38.67
2023-02-24T09:30:37.262Z,37.40
2023-02-24T09:33:21.652Z,35.70
2023-02-24T09:36:03.285Z,36.50
2023-02-24T09:39:08.397Z,36.60
2023-02-24T09:41:54.672Z,35.97
2023-02-24T09:44:29.788Z,36.00
2023-02-24T09:47:09.267Z,35.27
2023-02-24T09:49:56.696Z,35.00
2023-02-24T09:52:39.883Z,38.37
2023-02-24T09:55:26.220Z,33.57
2023-02-24T09:58:27.048Z,33.90
2023-02-24T10:01:21.233Z,31.90
2023-02-24T10:04:15.023Z,31.87
2023-02-24T10:06:50.709Z,30.27
2023-02-24T10:09:27.162Z,31.30
2023-02-24T10:12:04.636Z,31.37
2023-02-24T10:14:43.704Z,31.97
2023-02-24T10:17:30.730Z,31.87
2023-02-24T10:20:13.994Z,32.93
2023-02-24T10:22:52.612Z,34.27
2023-02-24T10:25:36.079Z,34.90
2023-02-24T10:28:16.267Z,35.30
2023-02-24T10:31:04.231Z,35.30
2023-02-24T10:33:39.093Z,34.80
2023-02-24T10:36:12.645Z,36.53
2023-02-24T10:38:45.558Z,37.30
2023-02-24T10:41:15.406Z,37.57
2023-02-24T10:43:56.099Z,38.20
2023-02-24T10:46:41.157Z,39.47
2023-02-24T10:49:16.935Z,41.23
2023-02-24T10:51:52.542Z,42.63
2023-02-24T10:54:34.639Z,42.97
2023-02-24T10:57:15.942Z,43.50
2023-02-24T11:00:06.775Z,46.53
2023-02-24T11:02:56.791Z,46.37
2023-02-24T11:05:38.683Z,45.97
2023-02-24T11:08:26.242Z,46.20
2023-02-24T11:10:58.800Z,47.90
2023-02-24T11:13:45.576Z,50.23
2023-02-24T11:16:31.331Z,50.77
2023-02-24T11:19:00.716Z,54.33
2023-02-24T11:21:29.371Z,53.07
2023-02-24T11:24:02.910Z,51.30
2023-02-24T11:26:36.796Z,59.43
2023-02-24T11:29:24.273Z,58.97
2023-02-24T11:32:11.626Z,61.87
2023-02-24T11:34:49.695Z,60.77
2023-02-24T11:37:34.466Z,60.20
2023-02-24T11:40:07.494Z,62.10
2023-02-24T11:42:42.015Z,64.97
2023-02-24T11:45:22.703Z,62.57
2023-02-24T11:47:55.478Z,64.10
2023-02-24T11:53:29.719Z,61.80
2023-02-24T11:56:03.400Z,59.73
2023-02-24T11:58:41.407Z,59.53
2023-02-24T12:01:16.078Z,65.50
2023-02-24T12:03:53.739Z,69.47
2023-02-24T12:06:27.544Z,65.57
2023-02-24T12:09:03.960Z,71.30
2023-02-24T12:11:41.675Z,71.93
2023-02-24T12:14:23.403Z,79.07
2023-02-24T12:16:59.908Z,80.77
2023-02-24T12:19:34.472Z,84.17
2023-02-24T12:22:07.676Z,86.00
2023-02-24T12:24:38.115Z,86.50
2023-02-24T12:27:18.398Z,81.70
2023-02-24T12:30:06.440Z,84.83
2023-02-24T12:32:48.486Z,85.87
2023-02-24T12:35:21.670Z,80.40
2023-02-24T12:38:05.754Z,83.20
2023-02-24T12:40:48.262Z,80.80
2023-02-24T12:43:28.593Z,87.60
2023-02-24T12:46:05.529Z,82.37
2023-02-24T12:48:54.819Z,88.57
2023-02-24T12:51:29.666Z,88.47
2023-02-24T12:54:04.439Z,89.37
2023-02-24T12:56:42.137Z,88.20
2023-02-24T12:59:15.816Z,83.83
2023-02-24T13:01:52.664Z,76.23
2023-02-24T13:04:38.128Z,76.40
2023-02-24T13:07:20.503Z,70.40
2023-02-24T13:09:56.006Z,66.00
2023-02-24T13:12:34.983Z,62.03
2023-02-24T13:15:05.588Z,63.47
2023-02-24T13:17:33.864Z,57.93
2023-02-24T13:20:12.334Z,54.20
2023-02-24T13:22:43.653Z,54.47
2023-02-24T13:25:31.869Z,54.20
2023-02-24T13:28:03.829Z,49.23
2023-02-24T13:30:42.181Z,50.17
2023-02-24T13:33:29.522Z,47.27
2023-02-24T13:36:13.587Z,50.17
2023-02-24T13:38:43.923Z,47.60
2023-02-24T13:41:38.325Z,48.57
2023-02-24T13:47:37.101Z,42.27
2023-02-24T13:50:20.970Z,42.37
2023-02-24T13:53:04.057Z,42.63
2023-02-24T13:55:48.070Z,39.23
2023-02-24T13:58:42.346Z,33.97
2023-02-24T14:01:12.726Z,29.90
2023-02-24T14:03:45.184Z,28.13
2023-02-24T14:06:21.861Z,26.70
2023-02-24T14:08:54.433Z,24.60
2023-02-24T14:11:28.436Z,25.77
2023-02-24T14:13:58.866Z,27.10
2023-02-24T14:16:31.596Z,27.60
2023-02-24T14:19:03.076Z,29.80
2023-02-24T14:21:34.608Z,25.10
2023-02-24T14:24:06.336Z,26.47
2023-02-24T14:26:46.753Z,25.10
2023-02-24T14:29:18.783Z,28.53
2023-02-24T14:31:53.430Z,32.00
2023-02-24T14:34:25.507Z,36.47
2023-02-24T14:36:56.804Z,37.27
2023-02-24T14:39:27.077Z,38.87
2023-02-24T14:42:11.876Z,41.00
2023-02-24T14:44:43.662Z,42.63
2023-02-24T14:47:15.446Z,44.63
2023-02-24T14:49:54.375Z,41.90
2023-02-24T14:52:34.347Z,41.23
2023-02-24T14:55:07.350Z,39.80
2023-02-24T14:57:40.545Z,40.50
2023-02-24T15:00:17.636Z,38.80
2023-02-24T15:02:52.945Z,40.97
2023-02-24T15:05:22.966Z,37.07
2023-02-24T15:07:52.042Z,34.07
2023-02-24T15:10:24.353Z,36.33
2023-02-24T15:12:59.707Z,35.20
2023-02-24T15:15:34.285Z,35.13
2023-02-24T15:18:11.197Z,33.37
2023-02-24T15:20:42.290Z,33.60
2023-02-24T15:23:27.563Z,33.37
2023-02-24T15:25:56.069Z,33.13
2023-02-24T15:28:26.892Z,32.20
2023-02-24T15:31:03.288Z,32.27
2023-02-24T15:33:37.397Z,29.77
2023-02-24T15:36:12.390Z,32.37
2023-02-24T15:38:43.383Z,33.20
2023-02-24T15:41:13.964Z,33.17
2023-02-24T15:43:50.295Z,33.70
2023-02-24T15:46:26.173Z,34.07
2023-02-24T15:48:57.634Z,29.77
2023-02-24T15:51:35.537Z,32.03
2023-02-24T15:54:06.037Z,29.87
2023-02-24T15:56:37.081Z,30.07
2023-02-24T15:59:06.163Z,28.90
2023-02-24T16:01:35.256Z,26.20
2023-02-24T16:04:04.901Z,25.87
2023-02-24T16:06:36.131Z,26.27
2023-02-24T16:09:05.410Z,26.07
2023-02-24T16:11:39.727Z,26.00
2023-02-24T16:14:14.169Z,25.63
2023-02-24T16:16:44.204Z,25.33
2023-02-24T16:19:14.809Z,25.37
2023-02-24T16:21:45.339Z,26.13
2023-02-24T16:24:14.036Z,25.17
2023-02-24T16:26:42.297Z,27.13
2023-02-24T16:29:15.201Z,28.50
2023-02-24T16:31:43.832Z,28.93
2023-02-24T16:34:15.818Z,28.43
2023-02-24T16:36:45.315Z,30.53
2023-02-24T16:39:14.784Z,30.70
2023-02-24T16:41:42.814Z,29.97
2023-02-24T16:44:11.438Z,30.97
2023-02-24T16:46:41.399Z,31.30
2023-02-24T16:49:14.584Z,33.57
2023-02-24T16:51:42.665Z,31.03
2023-02-24T16:54:12.098Z,31.10
2023-02-24T16:56:40.134Z,31.97
2023-02-24T16:59:08.256Z,32.90
2023-02-24T17:01:36.473Z,32.57
2023-02-24T17:04:09.659Z,32.03
2023-02-24T17:06:37.796Z,32.20
2023-02-24T17:09:05.904Z,31.93
2023-02-24T17:11:35.372Z,33.13
2023-02-24T17:14:03.433Z,33.20
2023-02-24T17:16:31.585Z,33.07
2023-02-24T17:18:59.679Z,33.50
2023-02-24T17:21:27.787Z,35.33
2023-02-24T17:23:55.848Z,33.67
2023-02-24T17:26:24.070Z,34.07
2023-02-24T17:28:53.597Z,35.20
2023-02-24T17:31:22.894Z,35.17
2023-02-24T17:33:51.134Z,36.50
2023-02-24T17:36:19.603Z,38.80
2023-02-24T17:38:47.802Z,39.10
2023-02-24T17:41:15.950Z,38.47
2023-02-24T17:43:43.986Z,37.80
2023-02-24T17:46:13.450Z,37.73
2023-02-24T17:48:41.565Z,39.40
2023-02-24T17:51:14.132Z,40.00
2023-02-24T17:53:42.183Z,40.80
2023-02-24T17:56:11.024Z,42.77
2023-02-24T17:58:39.921Z,44.03
2023-02-24T18:01:08.144Z,47.47
2023-02-24T18:03:37.810Z,46.90
2023-02-24T18:06:08.423Z,46.80
2023-02-24T18:08:37.304Z,46.40
2023-02-24T18:11:06.907Z,43.07
2023-02-24T18:13:35.362Z,42.90
2023-02-24T18:16:08.483Z,43.20
2023-02-24T18:18:38.042Z,43.13
2023-02-24T18:21:08.485Z,43.50
2023-02-24T18:23:38.215Z,41.83
2023-02-24T18:26:08.465Z,41.53
2023-02-24T18:28:37.169Z,41.60
2023-02-24T18:31:12.561Z,43.03
2023-02-24T18:33:42.266Z,42.33
2023-02-24T18:36:11.481Z,42.70
2023-02-24T18:38:39.860Z,44.27
2023-02-24T18:41:09.510Z,45.90
2023-02-24T18:43:38.202Z,44.33
2023-02-24T18:46:08.451Z,44.03
2023-02-24T18:48:36.567Z,43.10
2023-02-24T18:51:06.265Z,43.07
2023-02-24T18:53:36.824Z,42.97
2023-02-24T18:56:06.722Z,40.00
2023-02-24T18:58:37.023Z,41.23
2023-02-24T19:01:12.284Z,39.97
2023-02-24T19:03:40.349Z,38.00
2023-02-24T19:06:10.448Z,40.40
2023-02-24T19:08:39.787Z,38.77
2023-02-24T19:11:10.064Z,38.10
2023-02-24T19:13:38.239Z,38.77
2023-02-24T19:16:07.653Z,38.27
2023-02-24T19:18:36.201Z,40.13
2023-02-24T19:21:06.763Z,41.20
2023-02-24T19:23:36.984Z,39.93
2023-02-24T19:26:05.211Z,39.80
2023-02-24T19:28:33.341Z,39.33
2023-02-24T19:31:01.707Z,40.97
2023-02-24T19:33:29.782Z,41.07
2023-02-24T19:35:59.527Z,43.30
2023-02-24T19:38:28.428Z,44.77
2023-02-24T19:41:00.298Z,47.27
2023-02-24T19:43:28.681Z,47.87
2023-02-24T19:45:56.790Z,48.20
2023-02-24T19:48:24.952Z,49.70
2023-02-24T19:50:53.062Z,49.90
2023-02-24T19:53:21.111Z,50.97
2023-02-24T19:55:50.277Z,51.93
2023-02-24T19:58:19.749Z,52.30
2023-02-24T20:00:48.308Z,52.97
2023-02-24T20:03:17.106Z,52.70
2023-02-24T20:05:45.215Z,55.40
2023-02-24T20:08:13.350Z,56.60
2023-02-24T20:10:41.433Z,55.10
2023-02-24T20:13:09.501Z,56.67
2023-02-24T20:15:39.114Z,56.20
2023-02-24T20:18:08.813Z,56.70
2023-02-24T20:20:37.353Z,55.10
2023-02-24T20:23:05.765Z,57.80
2023-02-24T20:25:33.813Z,53.87
2023-02-24T20:28:02.755Z,56.03
2023-02-24T20:30:30.807Z,55.77
2023-02-24T20:33:00.276Z,56.07
2023-02-24T20:35:28.505Z,58.43
2023-02-24T20:37:56.549Z,58.10
2023-02-24T20:40:24.631Z,57.83
2023-02-24T20:42:52.657Z,57.80
2023-02-24T20:45:20.519Z,56.20
2023-02-24T20:47:48.680Z,55.93
2023-02-24T20:50:18.324Z,51.13
2023-02-24T20:52:46.477Z,52.13
2023-02-24T20:55:14.500Z,45.87
2023-02-24T20:57:42.568Z,43.87
2023-02-24T21:00:11.777Z,45.63
2023-02-24T21:02:41.190Z,44.27
2023-02-24T21:05:10.322Z,41.20
2023-02-24T21:07:40.064Z,41.03
2023-02-24T21:10:08.621Z,40.53
2023-02-24T21:12:36.723Z,38.90
2023-02-24T21:15:06.336Z,38.20
2023-02-24T21:17:34.754Z,38.73
2023-02-24T21:20:02.987Z,40.27
2023-02-24T21:22:31.957Z,40.90
2023-02-24T21:25:01.474Z,41.90
2023-02-24T21:27:29.612Z,46.73
2023-02-24T21:29:57.672Z,46.97
2023-02-24T21:32:25.864Z,49.60
2023-02-24T21:34:53.951Z,50.47
2023-02-24T21:37:22.074Z,52.70
2023-02-24T21:39:50.187Z,52.57
2023-02-24T21:42:19.634Z,54.13
2023-02-24T21:44:47.909Z,53.73
2023-02-24T21:47:15.982Z,53.43
2023-02-24T21:49:44.092Z,53.43
2023-02-24T21:52:12.202Z,52.60
2023-02-24T21:54:42.260Z,56.27
2023-02-24T21:57:10.426Z,56.40
2023-02-24T21:59:39.841Z,57.87
2023-02-24T22:02:08.288Z,58.23
2023-02-24T22:04:36.366Z,57.77
2023-02-24T22:07:04.473Z,57.70
2023-02-24T22:09:33.036Z,59.80
2023-02-24T22:12:01.150Z,58.60
2023-02-24T22:14:29.192Z,59.83
2023-02-24T22:16:58.831Z,57.00
2023-02-24T22:19:27.141Z,57.83
2023-02-24T22:21:55.224Z,57.33
2023-02-24T22:24:23.323Z,57.93
2023-02-24T22:26:51.662Z,60.30
2023-02-24T22:29:19.836Z,60.23
2023-02-24T22:31:49.798Z,60.57
2023-02-24T22:34:19.419Z,61.77
2023-02-24T22:36:47.524Z,62.00
2023-02-24T22:39:17.012Z,61.40
2023-02-24T22:41:45.592Z,62.27
2023-02-24T22:44:14.379Z,61.90
2023-02-24T22:46:42.479Z,61.27
2023-02-24T22:49:11.317Z,61.60
2023-02-24T22:51:42.214Z,65.27
2023-02-24T22:54:10.335Z,62.30
2023-02-24T22:56:38.564Z,63.47
2023-02-24T22:59:06.702Z,63.00
2023-02-24T23:01:36.892Z,62.97
2023-02-24T23:04:07.022Z,66.20
2023-02-24T23:06:36.557Z,65.57
2023-02-24T23:09:06.457Z,66.37
2023-02-24T23:11:38.535Z,69.47
2023-02-24T23:14:09.950Z,69.13
2023-02-24T23:16:39.364Z,70.40
2023-02-24T23:19:10.611Z,68.50
2023-02-24T23:21:40.886Z,75.67
2023-02-24T23:24:13.879Z,72.17
2023-02-24T23:26:43.841Z,73.83
2023-02-24T23:29:14.386Z,74.47
2023-02-24T23:31:43.116Z,76.30
2023-02-24T23:34:12.188Z,78.37
2023-02-24T23:36:41.842Z,78.83
2023-02-24T23:39:12.560Z,83.40
2023-02-24T23:41:42.092Z,80.97
2023-02-24T23:44:10.586Z,81.97
2023-02-24T23:46:38.861Z,82.83
2023-02-24T23:49:07.590Z,82.87
2023-02-24T23:51:47.584Z,84.60
2023-02-24T23:54:18.505Z,85.80
2023-02-24T23:56:46.974Z,85.40
2023-02-24T23:59:15.436Z,85.17
